sensor_id;sensor_type;location;lat;lon;timestamp;pressure;altitude;pressure_sealevel;temperature;humidity
22311;BME280;11323;49.610;11.016;2023-02-18T00:04:29;98799.69;;;14.13;nan
22311;BME280;11323;49.610;11.016;2023-02-18T00:09:30;98804.91;;;14.13;nan
22311;BME280;11323;49.610;11.016;2023-02-18T00:14:30;98799.69;;;14.13;nan
22311;BME280;11323;49.610;11.016;2023-02-18T00:19:30;98801.63;;;14.11;nan
22311;BME280;11323;49.610;11.016;2023-02-18T00:24:31;98787.19;;;14.07;nan
22311;BME280;11323;49.610;11.016;2023-02-18T00:29:31;98799.00;;;14.11;nan
22311;BME280;11323;49.610;11.016;2023-02-18T00:34:32;98799.97;;;14.10;nan
22311;BME280;11323;49.610;11.016;2023-02-18T00:39:36;98798.31;;;14.09;nan
22311;BME280;11323;49.610;11.016;2023-02-18T00:44:37;98792.09;;;14.10;nan
22311;BME280;11323;49.610;11.016;2023-02-18T00:49:37;98791.44;;;14.08;nan
22311;BME280;11323;49.610;11.016;2023-02-18T00:54:37;98792.44;;;14.07;nan
22311;BME280;11323;49.610;11.016;2023-02-18T00:59:38;98784.69;;;14.05;nan
22311;BME280;11323;49.610;11.016;2023-02-18T01:04:38;98785.53;;;14.05;nan
22311;BME280;11323;49.610;11.016;2023-02-18T01:09:38;98790.78;;;14.05;nan
22311;BME280;11323;49.610;11.016;2023-02-18T01:14:41;98778.25;;;13.99;nan
22311;BME280;11323;49.610;11.016;2023-02-18T01:19:41;98786.34;;;14.06;nan
22311;BME280;11323;49.610;11.016;2023-02-18T01:24:42;98778.94;;;14.01;nan
22311;BME280;11323;49.610;11.016;2023-02-18T01:29:42;98775.34;;;14.02;nan
22311;BME280;11323;49.610;11.016;2023-02-18T01:34:43;98783.88;;;14.04;nan
22311;BME280;11323;49.610;11.016;2023-02-18T01:39:43;98778.94;;;14.01;nan
22311;BME280;11323;49.610;11.016;2023-02-18T01:44:46;98787.78;;;14.00;nan
22311;BME280;11323;49.610;11.016;2023-02-18T01:49:51;98786.41;;;13.96;nan
22311;BME280;11323;49.610;11.016;2023-02-18T01:54:55;98791.38;;;13.99;nan
22311;BME280;11323;49.610;11.016;2023-02-18T02:00:09;98781.72;;;14.00;nan
22311;BME280;11323;49.610;11.016;2023-02-18T02:05:16;98776.59;;;13.98;nan
22311;BME280;11323;49.610;11.016;2023-02-18T02:10:17;98774.16;;;13.97;nan
22311;BME280;11323;49.610;11.016;2023-02-18T02:15:44;98767.94;;;13.98;nan
22311;BME280;11323;49.610;11.016;2023-02-18T02:48:17;98732.69;;;13.92;nan
22311;BME280;11323;49.610;11.016;2023-02-18T02:53:27;98738.59;;;13.94;nan
22311;BME280;11323;49.610;11.016;2023-02-18T02:58:29;98724.66;;;13.94;nan
22311;BME280;11323;49.610;11.016;2023-02-18T03:19:23;98732.69;;;13.92;nan
22311;BME280;11323;49.610;11.016;2023-02-18T03:24:38;98736.28;;;13.91;nan
22311;BME280;11323;49.610;11.016;2023-02-18T03:29:42;98729.00;;;13.85;nan
22311;BME280;11323;49.610;11.016;2023-02-18T03:34:48;98724.75;;;13.84;nan
22311;BME280;11323;49.610;11.016;2023-02-18T03:39:54;98729.69;;;13.87;nan
22311;BME280;11323;49.610;11.016;2023-02-18T03:44:56;98737.25;;;13.90;nan
22311;BME280;11323;49.610;11.016;2023-02-18T03:49:57;98721.47;;;13.82;nan
22311;BME280;11323;49.610;11.016;2023-02-18T03:54:57;98731.31;;;13.88;nan
22311;BME280;11323;49.610;11.016;2023-02-18T03:59:57;98721.97;;;13.85;nan
22311;BME280;11323;49.610;11.016;2023-02-18T04:04:58;98727.72;;;13.89;nan
22311;BME280;11323;49.610;11.016;2023-02-18T04:09:58;98736.84;;;13.85;nan
22311;BME280;11323;49.610;11.016;2023-02-18T04:14:59;98742.66;;;13.88;nan
22311;BME280;11323;49.610;11.016;2023-02-18T04:19:59;98740.16;;;13.87;nan
22311;BME280;11323;49.610;11.016;2023-02-18T04:24:59;98742.66;;;13.88;nan
22311;BME280;11323;49.610;11.016;2023-02-18T04:30:00;98746.25;;;13.87;nan
22311;BME280;11323;49.610;11.016;2023-02-18T04:35:00;98753.41;;;13.85;nan
22311;BME280;11323;49.610;11.016;2023-02-18T04:40:00;98747.03;;;13.88;nan
22311;BME280;11323;49.610;11.016;2023-02-18T04:45:01;98745.41;;;13.87;nan
22311;BME280;11323;49.610;11.016;2023-02-18T04:50:02;98741.13;;;13.86;nan
22311;BME280;11323;49.610;11.016;2023-02-18T04:55:03;98731.25;;;13.80;nan
22311;BME280;11323;49.610;11.016;2023-02-18T05:00:05;98738.50;;;13.86;nan
22311;BME280;11323;49.610;11.016;2023-02-18T05:05:06;98738.84;;;13.83;nan
22311;BME280;11323;49.610;11.016;2023-02-18T05:10:08;98738.84;;;13.83;nan
22311;BME280;11323;49.610;11.016;2023-02-18T05:15:10;98745.72;;;13.84;nan
22311;BME280;11323;49.610;11.016;2023-02-18T05:20:11;98739.63;;;13.83;nan
22311;BME280;11323;49.610;11.016;2023-02-18T05:25:12;98730.13;;;13.82;nan
22311;BME280;11323;49.610;11.016;2023-02-18T05:30:12;98724.75;;;13.84;nan
22311;BME280;11323;49.610;11.016;2023-02-18T05:35:13;98721.47;;;13.82;nan
22311;BME280;11323;49.610;11.016;2023-02-18T05:40:13;98725.06;;;13.81;nan
22311;BME280;11323;49.610;11.016;2023-02-18T05:45:14;98728.66;;;13.80;nan
22311;BME280;11323;49.610;11.016;2023-02-18T05:50:14;98723.25;;;13.81;nan
22311;BME280;11323;49.610;11.016;2023-02-18T05:55:15;98716.00;;;13.75;nan
22311;BME280;11323;49.610;11.016;2023-02-18T06:00:16;98725.34;;;13.78;nan
22311;BME280;11323;49.610;11.016;2023-02-18T06:05:16;98723.69;;;13.77;nan
22311;BME280;11323;49.610;11.016;2023-02-18T06:10:17;98726.19;;;13.78;nan
22311;BME280;11323;49.610;11.016;2023-02-18T06:15:17;98727.81;;;13.79;nan
22311;BME280;11323;49.610;11.016;2023-02-18T06:20:18;98715.16;;;13.74;nan
22311;BME280;11323;49.610;11.016;2023-02-18T06:25:18;98711.56;;;13.75;nan
22311;BME280;11323;49.610;11.016;2023-02-18T06:30:18;98705.53;;;13.75;nan
22311;BME280;11323;49.610;11.016;2023-02-18T06:35:19;98707.16;;;13.76;nan
22311;BME280;11323;49.610;11.016;2023-02-18T06:40:19;98711.56;;;13.75;nan
22311;BME280;11323;49.610;11.016;2023-02-18T06:45:20;98698.63;;;13.74;nan
22311;BME280;11323;49.610;11.016;2023-02-18T06:50:20;98696.47;;;13.69;nan
22311;BME280;11323;49.610;11.016;2023-02-18T06:55:21;98699.44;;;13.74;nan
22311;BME280;11323;49.610;11.016;2023-02-18T07:00:21;98691.75;;;13.73;nan
22311;BME280;11323;49.610;11.016;2023-02-18T07:05:22;98693.56;;;13.72;nan
22311;BME280;11323;49.610;11.016;2023-02-18T07:10:23;98690.63;;;13.75;nan
22311;BME280;11323;49.610;11.016;2023-02-18T07:15:23;98680.13;;;13.75;nan
22311;BME280;11323;49.610;11.016;2023-02-18T07:20:26;98688.97;;;13.74;nan
22311;BME280;11323;49.610;11.016;2023-02-18T07:25:26;98688.50;;;13.79;nan
22311;BME280;11323;49.610;11.016;2023-02-18T07:30:27;98684.09;;;13.80;nan
22311;BME280;11323;49.610;11.016;2023-02-18T07:35:27;98677.06;;;13.80;nan
22311;BME280;11323;49.610;11.016;2023-02-18T07:40:28;98669.06;;;13.82;nan
22311;BME280;11323;49.610;11.016;2023-02-18T07:45:28;98666.78;;;13.87;nan
22311;BME280;11323;49.610;11.016;2023-02-18T07:50:28;98674.81;;;13.85;nan
22311;BME280;11323;49.610;11.016;2023-02-18T07:55:34;98661.88;;;13.84;nan
22311;BME280;11323;49.610;11.016;2023-02-18T08:00:50;98662.19;;;13.81;nan
22311;BME280;11323;49.610;11.016;2023-02-18T08:05:53;98658.59;;;13.82;nan
22311;BME280;11323;49.610;11.016;2023-02-18T08:10:55;98671.81;;;13.80;nan
22311;BME280;11323;49.610;11.016;2023-02-18T08:15:57;98663.97;;;13.80;nan
22311;BME280;11323;49.610;11.016;2023-02-18T08:20:57;98662.19;;;13.81;nan
22311;BME280;11323;49.610;11.016;2023-02-18T08:25:57;98652.38;;;13.83;nan
22311;BME280;11323;49.610;11.016;2023-02-18T08:30:59;98635.97;;;13.81;nan
22311;BME280;11323;49.610;11.016;2023-02-18T08:35:59;98627.81;;;13.84;nan
22311;BME280;11323;49.610;11.016;2023-02-18T08:41:03;98612.03;;;13.75;nan
22311;BME280;11323;49.610;11.016;2023-02-18T08:46:04;98630.13;;;13.87;nan
22311;BME280;11323;49.610;11.016;2023-02-18T08:51:21;98632.91;;;13.85;nan
22311;BME280;11323;49.610;11.016;2023-02-18T08:56:22;98621.78;;;13.92;nan
22311;BME280;11323;49.610;11.016;2023-02-18T09:01:22;98604.16;;;14.02;nan
22311;BME280;11323;49.610;11.016;2023-02-18T09:06:23;98587.66;;;14.10;nan
22311;BME280;11323;49.610;11.016;2023-02-18T09:11:23;98582.78;;;14.15;nan
22311;BME280;11323;49.610;11.016;2023-02-18T09:16:24;98580.84;;;14.17;nan
22311;BME280;11323;49.610;11.016;2023-02-18T09:21:26;98588.91;;;14.24;nan
22311;BME280;11323;49.610;11.016;2023-02-18T09:26:26;98589.41;;;14.27;nan
22311;BME280;11323;49.610;11.016;2023-02-18T09:31:27;98579.91;;;14.26;nan
22311;BME280;11323;49.610;11.016;2023-02-18T09:36:28;98578.28;;;14.33;nan
22311;BME280;11323;49.610;11.016;2023-02-18T09:41:40;98588.47;;;14.36;nan
22311;BME280;11323;49.610;11.016;2023-02-18T09:46:47;98588.47;;;14.36;nan
22311;BME280;11323;49.610;11.016;2023-02-18T09:51:49;98573.03;;;14.33;nan
22311;BME280;11323;49.610;11.016;2023-02-18T09:56:51;98579.81;;;14.44;nan
22311;BME280;11323;49.610;11.016;2023-02-18T10:01:52;98558.00;;;14.44;nan
22311;BME280;11323;49.610;11.016;2023-02-18T10:06:53;98566.34;;;14.47;nan
22311;BME280;11323;49.610;11.016;2023-02-18T10:11:56;98578.03;;;14.53;nan
22311;BME280;11323;49.610;11.016;2023-02-18T10:16:58;98574.09;;;14.57;nan
22311;BME280;11323;49.610;11.016;2023-02-18T10:22:01;98559.72;;;14.61;nan
22311;BME280;11323;49.610;11.016;2023-02-18T10:27:05;98550.50;;;14.65;nan
22311;BME280;11323;49.610;11.016;2023-02-18T10:32:35;98540.91;;;14.74;nan
22311;BME280;11323;49.610;11.016;2023-02-18T10:37:50;98527.16;;;14.80;nan
22311;BME280;11323;49.610;11.016;2023-02-18T10:48:28;98528.63;;;14.91;nan
22311;BME280;11323;49.610;11.016;2023-02-18T10:53:36;98535.69;;;14.99;nan
22311;BME280;11323;49.610;11.016;2023-02-18T10:58:42;98528.31;;;14.94;nan
22311;BME280;11323;49.610;11.016;2023-02-18T11:03:47;98521.06;;;14.88;nan
22311;BME280;11323;49.610;11.016;2023-02-18T11:08:48;98529.28;;;14.93;nan
22311;BME280;11323;49.610;11.016;2023-02-18T11:13:53;98511.91;;;14.92;nan
22311;BME280;11323;49.610;11.016;2023-02-18T11:18:53;98508.44;;;14.92;nan
22311;BME280;11323;49.610;11.016;2023-02-18T11:23:56;98506.00;;;14.90;nan
22311;BME280;11323;49.610;11.016;2023-02-18T11:29:00;98499.09;;;14.89;nan
22311;BME280;11323;49.610;11.016;2023-02-18T11:34:03;98490.56;;;14.87;nan
22311;BME280;11323;49.610;11.016;2023-02-18T11:39:25;98488.09;;;14.86;nan
22311;BME280;11323;49.610;11.016;2023-02-18T11:44:27;98466.31;;;14.85;nan
22311;BME280;11323;49.610;11.016;2023-02-18T11:49:30;98473.16;;;14.86;nan
22311;BME280;11323;49.610;11.016;2023-02-18T11:54:31;98476.47;;;14.88;nan
22311;BME280;11323;49.610;11.016;2023-02-18T11:59:35;98446.28;;;14.92;nan
22311;BME280;11323;49.610;11.016;2023-02-18T12:04:43;98435.81;;;14.84;nan
22311;BME280;11323;49.610;11.016;2023-02-18T12:10:12;98450.38;;;14.95;nan
22311;BME280;11323;49.610;11.016;2023-02-18T12:15:18;98429.25;;;14.96;nan
22311;BME280;11323;49.610;11.016;2023-02-18T12:26:02;98439.09;;;14.94;nan
22311;BME280;11323;49.610;11.016;2023-02-18T12:41:37;98448.88;;;15.09;nan
22311;BME280;11323;49.610;11.016;2023-02-18T12:47:02;98443.63;;;15.09;nan
22311;BME280;11323;49.610;11.016;2023-02-18T12:52:32;98431.19;;;15.03;nan
22311;BME280;11323;49.610;11.016;2023-02-18T12:57:42;98429.22;;;15.05;nan
22311;BME280;11323;49.610;11.016;2023-02-18T13:03:12;98427.75;;;14.94;nan
22311;BME280;11323;49.610;11.016;2023-02-18T13:13:33;98407.88;;;14.50;nan
22311;BME280;11323;49.610;11.016;2023-02-18T13:18:46;98409.19;;;14.46;nan
22311;BME280;11323;49.610;11.016;2023-02-18T13:23:56;98402.66;;;14.58;nan
22311;BME280;11323;49.610;11.016;2023-02-18T13:29:25;98406.78;;;14.77;nan
22311;BME280;11323;49.610;11.016;2023-02-18T13:34:35;98407.09;;;14.91;nan
22311;BME280;11323;49.610;11.016;2023-02-18T13:39:46;98409.50;;;15.09;nan
22311;BME280;11323;49.610;11.016;2023-02-18T13:49:54;98402.97;;;15.05;nan
22311;BME280;11323;49.610;11.016;2023-02-18T13:54:55;98396.38;;;15.09;nan
22311;BME280;11323;49.610;11.016;2023-02-18T13:59:57;98394.59;;;15.09;nan
22311;BME280;11323;49.610;11.016;2023-02-18T14:35:47;98400.09;;;15.39;nan
22311;BME280;11323;49.610;11.016;2023-02-18T14:41:11;98398.31;;;15.40;nan
22311;BME280;11323;49.610;11.016;2023-02-18T14:51:31;98407.16;;;15.39;nan
22311;BME280;11323;49.610;11.016;2023-02-18T14:56:37;98408.47;;;15.35;nan
22311;BME280;11323;49.610;11.016;2023-02-18T15:01:38;98411.28;;;15.33;nan
22311;BME280;11323;49.610;11.016;2023-02-18T15:06:39;98415.09;;;15.31;nan
22311;BME280;11323;49.610;11.016;2023-02-18T15:11:46;98424.94;;;15.28;nan
22311;BME280;11323;49.610;11.016;2023-02-18T15:16:48;98437.06;;;15.29;nan
22311;BME280;11323;49.610;11.016;2023-02-18T15:21:50;98430.19;;;15.28;nan
22311;BME280;11323;49.610;11.016;2023-02-18T15:26:55;98426.56;;;15.29;nan
22311;BME280;11323;49.610;11.016;2023-02-18T15:31:56;98431.63;;;15.31;nan
22311;BME280;11323;49.610;11.016;2023-02-18T15:37:01;98423.94;;;15.29;nan
22311;BME280;11323;49.610;11.016;2023-02-18T15:42:08;98437.22;;;15.36;nan
22311;BME280;11323;49.610;11.016;2023-02-18T15:47:12;98440.00;;;15.35;nan
22311;BME280;11323;49.610;11.016;2023-02-18T15:52:13;98432.31;;;15.33;nan
22311;BME280;11323;49.610;11.016;2023-02-18T15:57:14;98440.69;;;15.28;nan
22311;BME280;11323;49.610;11.016;2023-02-18T16:02:19;98448.38;;;15.30;nan
22311;BME280;11323;49.610;11.016;2023-02-18T16:07:25;98438.06;;;15.28;nan
22311;BME280;11323;49.610;11.016;2023-02-18T16:12:30;98435.06;;;15.32;nan
22311;BME280;11323;49.610;11.016;2023-02-18T16:17:31;98440.00;;;15.35;nan
22311;BME280;11323;49.610;11.016;2023-02-18T16:22:40;98445.25;;;15.35;nan
22311;BME280;11323;49.610;11.016;2023-02-18T16:32:49;98449.53;;;15.36;nan
22311;BME280;11323;49.610;11.016;2023-02-18T16:37:52;98449.19;;;15.39;nan
22311;BME280;11323;49.610;11.016;2023-02-18T16:42:54;98454.09;;;15.50;nan
22311;BME280;11323;49.610;11.016;2023-02-18T16:47:55;98467.03;;;15.52;nan
22311;BME280;11323;49.610;11.016;2023-02-18T16:52:56;98455.06;;;15.49;nan
22311;BME280;11323;49.610;11.016;2023-02-18T16:57:57;98478.53;;;15.59;nan
22311;BME280;11323;49.610;11.016;2023-02-18T17:02:58;98464.28;;;15.53;nan
22311;BME280;11323;49.610;11.016;2023-02-18T17:08:13;98480.00;;;15.62;nan
22311;BME280;11323;49.610;11.016;2023-02-18T17:13:19;98498.41;;;15.62;nan
22311;BME280;11323;49.610;11.016;2023-02-18T17:18:20;98500.03;;;15.63;nan
22311;BME280;11323;49.610;11.016;2023-02-18T17:23:22;98498.41;;;15.62;nan
22311;BME280;11323;49.610;11.016;2023-02-18T17:28:22;98512.50;;;15.60;nan
22311;BME280;11323;49.610;11.016;2023-02-18T17:33:24;98513.69;;;15.58;nan
22311;BME280;11323;49.610;11.016;2023-02-18T17:38:25;98499.56;;;15.42;nan
22311;BME280;11323;49.610;11.016;2023-02-18T17:43:25;98523.03;;;15.44;nan
22311;BME280;11323;49.610;11.016;2023-02-18T17:48:25;98523.53;;;15.39;nan
22311;BME280;11323;49.610;11.016;2023-02-18T17:53:27;98531.59;;;15.38;nan
22311;BME280;11323;49.610;11.016;2023-02-18T17:58:27;98531.75;;;15.36;nan
22311;BME280;11323;49.610;11.016;2023-02-18T18:03:28;98538.16;;;15.42;nan
22311;BME280;11323;49.610;11.016;2023-02-18T18:08:28;98547.34;;;15.46;nan
22311;BME280;11323;49.610;11.016;2023-02-18T18:13:30;98553.25;;;15.48;nan
22311;BME280;11323;49.610;11.016;2023-02-18T18:18:33;98541.94;;;15.48;nan
22311;BME280;11323;49.610;11.016;2023-02-18T18:23:36;98547.34;;;15.46;nan
22311;BME280;11323;49.610;11.016;2023-02-18T18:28:36;98548.97;;;15.47;nan
22311;BME280;11323;49.610;11.016;2023-02-18T18:33:36;98552.75;;;15.44;nan
22311;BME280;11323;49.610;11.016;2023-02-18T18:38:37;98544.41;;;15.41;nan
22311;BME280;11323;49.610;11.016;2023-02-18T18:43:37;98547.66;;;15.43;nan
22311;BME280;11323;49.610;11.016;2023-02-18T18:48:39;98541.59;;;15.34;nan
22311;BME280;11323;49.610;11.016;2023-02-18T18:53:39;98550.63;;;15.32;nan
22311;BME280;11323;49.610;11.016;2023-02-18T18:58:40;98544.72;;;15.29;nan
22311;BME280;11323;49.610;11.016;2023-02-18T19:03:40;98547.34;;;15.29;nan
22311;BME280;11323;49.610;11.016;2023-02-18T19:08:41;98537.97;;;15.27;nan
22311;BME280;11323;49.610;11.016;2023-02-18T19:13:42;98552.94;;;15.26;nan
22311;BME280;11323;49.610;11.016;2023-02-18T19:18:45;98548.00;;;15.23;nan
22311;BME280;11323;49.610;11.016;2023-02-18T19:23:45;98546.34;;;15.22;nan
22311;BME280;11323;49.610;11.016;2023-02-18T19:28:46;98562.09;;;15.22;nan
22311;BME280;11323;49.610;11.016;2023-02-18T19:33:46;98572.78;;;15.21;nan
22311;BME280;11323;49.610;11.016;2023-02-18T19:38:46;98566.88;;;15.19;nan
22311;BME280;11323;49.610;11.016;2023-02-18T19:43:47;98574.91;;;15.17;nan
22311;BME280;11323;49.610;11.016;2023-02-18T19:48:48;98567.03;;;15.17;nan
22311;BME280;11323;49.610;11.016;2023-02-18T19:53:50;98564.38;;;15.09;nan
22311;BME280;11323;49.610;11.016;2023-02-18T19:58:54;98573.44;;;15.23;nan
22311;BME280;11323;49.610;11.016;2023-02-18T20:03:54;98583.94;;;15.31;nan
22311;BME280;11323;49.610;11.016;2023-02-18T20:08:55;98575.56;;;15.36;nan
22311;BME280;11323;49.610;11.016;2023-02-18T20:13:55;98578.84;;;15.38;nan
22311;BME280;11323;49.610;11.016;2023-02-18T20:18:55;98588.06;;;15.42;nan
22311;BME280;11323;49.610;11.016;2023-02-18T20:23:56;98587.06;;;15.43;nan
22311;BME280;11323;49.610;11.016;2023-02-18T20:28:57;98584.44;;;15.43;nan
22311;BME280;11323;49.610;11.016;2023-02-18T20:33:58;98588.56;;;15.46;nan
22311;BME280;11323;49.610;11.016;2023-02-18T20:38:58;98583.97;;;15.48;nan
22311;BME280;11323;49.610;11.016;2023-02-18T20:43:59;98580.81;;;15.44;nan
22311;BME280;11323;49.610;11.016;2023-02-18T20:49:00;98578.84;;;15.46;nan
22311;BME280;11323;49.610;11.016;2023-02-18T20:54:03;98583.63;;;15.42;nan
22311;BME280;11323;49.610;11.016;2023-02-18T20:59:06;98586.41;;;15.49;nan
22311;BME280;11323;49.610;11.016;2023-02-18T21:04:06;98572.94;;;15.44;nan
22311;BME280;11323;49.610;11.016;2023-02-18T21:09:07;98579.16;;;15.43;nan
22311;BME280;11323;49.610;11.016;2023-02-18T21:14:07;98583.63;;;15.42;nan
22311;BME280;11323;49.610;11.016;2023-02-18T21:19:11;98558.16;;;15.35;nan
22311;BME280;11323;49.610;11.016;2023-02-18T21:24:12;98576.06;;;15.56;nan
22311;BME280;11323;49.610;11.016;2023-02-18T21:29:13;98570.47;;;15.51;nan
22311;BME280;11323;49.610;11.016;2023-02-18T21:34:14;98562.59;;;15.26;nan
22311;BME280;11323;49.610;11.016;2023-02-18T21:39:14;98568.69;;;15.26;nan
22311;BME280;11323;49.610;11.016;2023-02-18T21:44:15;98587.25;;;15.25;nan
22311;BME280;11323;49.610;11.016;2023-02-18T21:49:15;98579.19;;;15.18;nan
22311;BME280;11323;49.610;11.016;2023-02-18T21:54:22;98574.91;;;15.17;nan
22311;BME280;11323;49.610;11.016;2023-02-18T21:59:25;98565.41;;;15.08;nan
22311;BME280;11323;49.610;11.016;2023-02-18T22:04:27;98571.47;;;15.08;nan
22311;BME280;11323;49.610;11.016;2023-02-18T22:09:28;98567.69;;;15.11;nan
22311;BME280;11323;49.610;11.016;2023-02-18T22:14:29;98567.53;;;15.12;nan
22311;BME280;11323;49.610;11.016;2023-02-18T22:19:30;98560.16;;;15.08;nan
22311;BME280;11323;49.610;11.016;2023-02-18T22:24:30;98559.81;;;15.11;nan
22311;BME280;11323;49.610;11.016;2023-02-18T22:29:31;98549.31;;;15.11;nan
22311;BME280;11323;49.610;11.016;2023-02-18T22:34:31;98546.38;;;15.06;nan
22311;BME280;11323;49.610;11.016;2023-02-18T22:39:32;98549.66;;;15.08;nan
22311;BME280;11323;49.610;11.016;2023-02-18T22:44:32;98546.38;;;15.06;nan
22311;BME280;11323;49.610;11.016;2023-02-18T22:49:32;98538.00;;;15.02;nan
22311;BME280;11323;49.610;11.016;2023-02-18T22:54:33;98525.69;;;15.03;nan
22311;BME280;11323;49.610;11.016;2023-02-18T22:59:33;98526.34;;;14.96;nan
22311;BME280;11323;49.610;11.016;2023-02-18T23:04:33;98522.22;;;14.94;nan
22311;BME280;11323;49.610;11.016;2023-02-18T23:09:34;98520.09;;;14.89;nan
22311;BME280;11323;49.610;11.016;2023-02-18T23:14:34;98517.63;;;14.88;nan
22311;BME280;11323;49.610;11.016;2023-02-18T23:19:35;98516.00;;;14.87;nan
22311;BME280;11323;49.610;11.016;2023-02-18T23:24:38;98501.41;;;14.84;nan
22311;BME280;11323;49.610;11.016;2023-02-18T23:29:39;98494.50;;;14.83;nan
22311;BME280;11323;49.610;11.016;2023-02-18T23:34:40;98487.63;;;14.82;nan
22311;BME280;11323;49.610;11.016;2023-02-18T23:39:40;98483.53;;;14.79;nan
22311;BME280;11323;49.610;11.016;2023-02-18T23:44:41;98479.41;;;14.77;nan
22311;BME280;11323;49.610;11.016;2023-02-18T23:49:41;98493.50;;;14.76;nan
22311;BME280;11323;49.610;11.016;2023-02-18T23:54:42;98485.00;;;14.74;nan
22311;BME280;11323;49.610;11.016;2023-02-18T23:59:42;98487.44;;;14.75;nan
